Time;durP1;ratioP1;P1;durP2;ratioP2;P2;SDS_P1;SDS_P2;PMS_P1;PMS_P2;Temp;Humidity;BMP_temperature;BMP_pressure;BME280_temperature;BME280_humidity;BME280_pressure;Samples;Min_cycle;Max_cycle;Signal;HPM_P1;HPM_P2
2023/12/26 00:01:47;;;;;;;3.67;3.38;;;;;;;11.41;100.00;100523.56;5093472;27;20130;-75
2023/12/26 00:04:13;;;;;;;3.88;3.53;;;;;;;11.44;100.00;100527.81;5076817;28;20036;-75
2023/12/26 00:06:43;;;;;;;3.97;3.60;;;;;;;11.40;100.00;100530.72;5092267;27;20036;-76
2023/12/26 00:09:10;;;;;;;3.50;3.22;;;;;;;11.37;100.00;100517.59;5092479;27;20035;-76
2023/12/26 00:11:43;;;;;;;3.88;3.47;;;;;;;11.43;100.00;100529.63;5091624;27;20028;-75
2023/12/26 00:14:09;;;;;;;3.53;2.45;;;;;;;11.32;100.00;100525.06;5093954;27;20162;-75
2023/12/26 00:16:34;;;;;;;2.97;2.67;;;;;;;11.43;100.00;100532.31;5096167;27;20186;-74
2023/12/26 00:19:00;;;;;;;3.67;2.95;;;;;;;11.35;100.00;100527.53;5089728;27;20066;-75
2023/12/26 00:21:25;;;;;;;2.80;2.60;;;;;;;11.31;100.00;100525.19;5088281;28;20051;-75
2023/12/26 00:23:51;;;;;;;3.00;2.80;;;;;;;11.34;100.00;100543.63;5101006;27;20105;-75
2023/12/26 00:26:17;;;;;;;2.70;2.50;;;;;;;11.35;100.00;100532.03;5103114;27;20106;-75
2023/12/26 00:28:44;;;;;;;5.18;3.38;;;;;;;11.32;100.00;100532.22;5084387;27;20949;-75
2023/12/26 00:31:09;;;;;;;3.40;3.10;;;;;;;11.28;100.00;100528.91;5095412;27;20048;-75
2023/12/26 00:33:35;;;;;;;4.63;2.80;;;;;;;11.22;100.00;100534.69;5101036;27;20105;-74
2023/12/26 00:36:01;;;;;;;2.83;2.58;;;;;;;11.24;100.00;100521.25;5093096;27;20056;-74
2023/12/26 00:38:27;;;;;;;3.25;3.00;;;;;;;11.32;100.00;100541.09;5082428;27;20027;-73
2023/12/26 00:40:52;;;;;;;3.53;3.05;;;;;;;11.18;100.00;100527.03;5085944;28;20531;-75
2023/12/26 00:43:18;;;;;;;3.83;3.25;;;;;;;11.25;100.00;100521.16;5094658;27;20044;-73
2023/12/26 00:45:44;;;;;;;5.53;3.13;;;;;;;11.21;100.00;100524.16;5089117;28;20032;-74
2023/12/26 00:48:09;;;;;;;5.72;3.28;;;;;;;11.16;100.00;100511.13;5099496;27;20078;-74
2023/12/26 00:50:41;;;;;;;3.08;2.85;;;;;;;11.20;100.00;100517.09;5099831;27;20039;-73
2023/12/26 00:53:08;;;;;;;4.97;3.13;;;;;;;11.19;100.00;100518.03;5091417;28;20064;-74
2023/12/26 00:55:34;;;;;;;4.85;3.35;;;;;;;11.19;100.00;100534.06;5079508;28;20960;-75
2023/12/26 00:58:01;;;;;;;4.53;3.63;;;;;;;11.20;100.00;100527.78;5066165;28;20025;-75
2023/12/26 01:00:26;;;;;;;6.70;3.20;;;;;;;11.17;100.00;100536.00;5106822;28;21702;-74
2023/12/26 01:02:53;;;;;;;3.72;3.13;;;;;;;11.09;100.00;100549.88;5108529;28;20064;-74
2023/12/26 01:05:18;;;;;;;5.97;3.30;;;;;;;11.21;100.00;100546.34;5096960;27;20080;-73
2023/12/26 01:07:44;;;;;;;4.03;2.97;;;;;;;11.06;100.00;100550.09;5101392;28;20092;-75
2023/12/26 01:10:09;;;;;;;4.88;3.30;;;;;;;11.02;100.00;100546.78;5079765;28;20031;-75
2023/12/26 01:12:35;;;;;;;2.95;2.60;;;;;;;10.96;100.00;100547.22;5113248;28;20028;-75
2023/12/26 01:15:01;;;;;;;3.92;3.05;;;;;;;11.06;100.00;100536.75;5113394;27;20039;-75
2023/12/26 01:17:26;;;;;;;5.07;3.80;;;;;;;11.01;100.00;100538.88;5114385;27;20127;-74
2023/12/26 01:19:52;;;;;;;4.43;3.78;;;;;;;11.05;100.00;100543.91;5120139;27;20139;-74
2023/12/26 01:22:17;;;;;;;7.95;3.63;;;;;;;11.07;100.00;100541.13;5095959;27;20637;-76
2023/12/26 01:24:43;;;;;;;8.45;4.03;;;;;;;11.01;100.00;100539.75;5102972;28;20024;-74
2023/12/26 01:27:08;;;;;;;6.80;3.40;;;;;;;11.00;100.00;100537.19;5105556;27;20032;-75
2023/12/26 01:29:34;;;;;;;6.88;3.63;;;;;;;11.06;100.00;100542.94;5103363;27;20033;-75
2023/12/26 01:31:59;;;;;;;7.05;3.40;;;;;;;10.98;100.00;100534.59;5091617;27;20044;-76
2023/12/26 01:34:25;;;;;;;7.07;2.88;;;;;;;11.05;100.00;100530.56;5102875;27;20056;-76
2023/12/26 01:36:50;;;;;;;7.93;2.97;;;;;;;11.02;100.00;100532.59;5103927;28;20047;-73
2023/12/26 01:39:16;;;;;;;4.07;2.42;;;;;;;10.99;100.00;100541.66;5113759;27;20028;-75
2023/12/26 01:41:42;;;;;;;3.50;2.55;;;;;;;11.03;100.00;100544.97;5106073;27;20044;-73
2023/12/26 01:44:07;;;;;;;3.92;2.60;;;;;;;11.02;100.00;100535.25;5105646;27;20532;-74
2023/12/26 01:46:34;;;;;;;5.63;2.60;;;;;;;10.98;100.00;100534.59;5094035;27;20031;-77
2023/12/26 01:49:00;;;;;;;5.03;2.90;;;;;;;11.01;100.00;100546.91;5103917;27;20048;-75
2023/12/26 01:51:29;;;;;;;3.22;2.35;;;;;;;10.99;100.00;100546.97;5097203;28;20042;-74
2023/12/26 01:53:55;;;;;;;4.18;2.67;;;;;;;11.04;100.00;100554.66;5102334;28;20034;-75
2023/12/26 01:56:21;;;;;;;3.97;2.42;;;;;;;11.00;100.00;100548.72;5096169;28;20064;-77
2023/12/26 01:58:49;;;;;;;3.90;3.05;;;;;;;10.95;100.00;100550.84;5104417;27;20035;-73
2023/12/26 02:01:15;;;;;;;4.30;2.47;;;;;;;10.91;100.00;100546.69;5085767;28;20121;-77
2023/12/26 02:03:42;;;;;;;8.93;3.90;;;;;;;10.94;100.00;100550.94;5099516;28;20078;-76
2023/12/26 02:06:08;;;;;;;6.25;3.03;;;;;;;10.89;100.00;100556.59;5106078;27;20031;-75
2023/12/26 02:08:39;;;;;;;3.50;3.10;;;;;;;10.98;100.00;100560.44;5088718;27;20074;-76
2023/12/26 02:11:05;;;;;;;4.50;2.65;;;;;;;10.94;100.00;100565.13;5102121;27;20119;-76
2023/12/26 02:13:33;;;;;;;4.50;2.97;;;;;;;10.92;100.00;100560.88;5086279;28;20505;-75
2023/12/26 02:16:06;;;;;;;6.85;3.83;;;;;;;10.98;100.00;100563.09;5080709;27;20039;-76
2023/12/26 02:18:33;;;;;;;4.95;3.53;;;;;;;11.00;100.00;100561.22;5088927;27;20035;-75
2023/12/26 02:20:59;;;;;;;8.50;3.78;;;;;;;10.95;100.00;100558.00;5105387;27;20043;-76
2023/12/26 02:23:29;;;;;;;4.10;3.72;;;;;;;10.95;100.00;100558.00;5092087;28;20042;-76
2023/12/26 02:25:55;;;;;;;7.28;3.28;;;;;;;10.99;100.00;100565.66;5094812;27;20039;-76
2023/12/26 02:28:22;;;;;;;5.05;3.00;;;;;;;10.98;100.00;100581.78;5093320;27;20088;-76
2023/12/26 02:30:51;;;;;;;4.97;3.30;;;;;;;10.97;100.00;100572.06;5101849;27;20035;-75
2023/12/26 02:33:17;;;;;;;9.63;3.65;;;;;;;10.90;100.00;100582.31;5095855;27;20043;-76
2023/12/26 02:35:43;;;;;;;6.63;3.95;;;;;;;10.95;100.00;100579.34;5095446;27;20048;-76
2023/12/26 02:38:09;;;;;;;4.10;2.20;;;;;;;10.94;100.00;100593.63;5101955;27;20220;-76
2023/12/26 02:40:35;;;;;;;3.67;2.47;;;;;;;10.93;100.00;100592.78;5095124;27;20040;-74
2023/12/26 02:43:00;;;;;;;3.95;2.22;;;;;;;10.91;100.00;100589.38;5097406;27;20044;-75
2023/12/26 02:45:26;;;;;;;5.38;1.88;;;;;;;10.97;100.00;100586.25;5070993;28;20032;-77
2023/12/26 02:47:51;;;;;;;3.28;1.52;;;;;;;10.96;100.00;100595.25;5097142;27;20709;-75
2023/12/26 02:50:18;;;;;;;2.47;1.67;;;;;;;10.98;100.00;100605.78;5097563;27;20036;-77
2023/12/26 02:52:43;;;;;;;3.92;1.85;;;;;;;10.97;100.00;100610.28;5093011;27;20036;-76
2023/12/26 02:55:09;;;;;;;4.85;2.70;;;;;;;10.92;100.00;100598.22;5090805;27;20043;-76
2023/12/26 02:57:34;;;;;;;5.93;3.55;;;;;;;10.92;100.00;100617.75;5098581;27;20158;-75
2023/12/26 03:00:01;;;;;;;9.15;3.90;;;;;;;10.99;100.00;100629.69;5101598;27;20094;-76
2023/12/26 03:02:26;;;;;;;3.45;3.15;;;;;;;11.00;100.00;100635.91;5092407;27;20036;-74
2023/12/26 03:04:52;;;;;;;8.45;4.18;;;;;;;10.99;100.00;100635.03;5096857;27;20521;-77
2023/12/26 03:07:18;;;;;;;7.95;4.20;;;;;;;11.03;100.00;100633.00;5063210;27;20090;-75
2023/12/26 03:09:44;;;;;;;6.78;4.30;;;;;;;11.02;100.00;100623.31;5099570;27;20063;-75
2023/12/26 03:12:09;;;;;;;10.65;3.80;;;;;;;11.02;100.00;100637.50;5076971;28;20036;-76
2023/12/26 03:14:35;;;;;;;6.03;3.13;;;;;;;11.03;100.00;100625.84;5091554;27;20032;-74
2023/12/26 03:17:00;;;;;;;12.32;4.03;;;;;;;11.04;100.00;100635.56;5102220;27;20694;-74
2023/12/26 03:19:28;;;;;;;6.63;2.72;;;;;;;10.93;100.00;100630.13;5092364;27;20145;-75
2023/12/26 03:21:53;;;;;;;8.85;3.05;;;;;;;10.97;100.00;100620.09;5092991;27;20065;-75
2023/12/26 03:24:19;;;;;;;12.27;3.38;;;;;;;11.01;100.00;100632.28;5107481;27;20043;-76
2023/12/26 03:26:44;;;;;;;12.25;3.25;;;;;;;10.95;100.00;100638.03;5079033;27;20058;-75
2023/12/26 03:29:10;;;;;;;8.20;2.90;;;;;;;10.93;100.00;100634.59;5094163;27;20044;-75
2023/12/26 03:31:42;;;;;;;13.25;3.63;;;;;;;10.98;100.00;100648.47;5098749;27;20040;-75
2023/12/26 03:34:08;;;;;;;15.52;3.25;;;;;;;10.97;100.00;100636.97;5088675;27;20248;-74
2023/12/26 03:36:33;;;;;;;10.25;2.72;;;;;;;10.85;100.00;100630.66;5101148;27;20040;-76
2023/12/26 03:38:59;;;;;;;7.07;2.55;;;;;;;10.82;100.00;100635.34;5095617;27;20035;-75
2023/12/26 03:41:25;;;;;;;13.02;2.67;;;;;;;10.76;100.00;100639.28;5075588;27;20039;-74
2023/12/26 03:43:50;;;;;;;12.20;2.70;;;;;;;10.74;100.00;100646.50;5102535;27;20054;-75
2023/12/26 03:46:16;;;;;;;12.68;2.65;;;;;;;10.79;100.00;100643.53;5078196;27;20040;-74
2023/12/26 03:48:42;;;;;;;9.10;2.63;;;;;;;10.72;100.00;100644.91;5082617;27;20032;-74
2023/12/26 03:51:08;;;;;;;9.50;3.08;;;;;;;10.63;100.00;100644.56;5082093;27;20055;-74
2023/12/26 03:53:34;;;;;;;10.50;2.55;;;;;;;10.72;100.00;100642.25;5091696;27;20435;-76
2023/12/26 03:55:59;;;;;;;12.00;2.40;;;;;;;10.81;100.00;100631.81;5090294;27;20044;-75
2023/12/26 03:58:25;;;;;;;12.20;2.40;;;;;;;10.79;100.00;100641.75;5086892;28;20032;-75
2023/12/26 04:00:51;;;;;;;10.93;2.45;;;;;;;10.77;100.00;100642.78;5056573;28;20513;-75
2023/12/26 04:03:16;;;;;;;10.25;2.55;;;;;;;10.73;100.00;100644.81;5083118;27;20235;-74
2023/12/26 04:05:42;;;;;;;13.55;2.72;;;;;;;10.71;100.00;100637.88;5053745;28;20996;-75
2023/12/26 04:08:08;;;;;;;19.63;3.58;;;;;;;10.75;100.00;100648.25;5069397;28;20037;-75
2023/12/26 04:10:33;;;;;;;21.48;3.47;;;;;;;10.73;100.00;100643.94;5087824;27;20175;-75
2023/12/26 04:12:59;;;;;;;18.10;3.65;;;;;;;10.79;100.00;100644.41;5077049;28;20036;-74
2023/12/26 04:15:25;;;;;;;18.35;3.55;;;;;;;10.78;100.00;100653.34;5077184;27;20040;-75
2023/12/26 04:17:51;;;;;;;13.38;3.45;;;;;;;10.68;100.00;100646.94;5075218;27;20570;-75
2023/12/26 04:20:17;;;;;;;16.02;3.85;;;;;;;10.73;100.00;100644.81;5098470;27;20036;-75
2023/12/26 04:22:43;;;;;;;10.38;2.47;;;;;;;10.68;100.00;100649.59;5048918;28;20553;-74
2023/12/26 04:25:08;;;;;;;12.70;2.72;;;;;;;10.63;100.00;100649.03;5055319;28;20041;-74
2023/12/26 04:27:35;;;;;;;11.52;2.40;;;;;;;10.59;100.00;100647.53;5076959;27;20039;-74
2023/12/26 04:30:02;;;;;;;16.95;3.13;;;;;;;10.58;100.00;100653.81;5092021;27;20032;-74
2023/12/26 04:32:28;;;;;;;11.48;2.95;;;;;;;10.52;100.00;100662.25;5083154;27;20031;-74
2023/12/26 04:34:53;;;;;;;13.38;2.55;;;;;;;10.46;100.00;100657.31;5090795;27;20908;-75
2023/12/26 04:37:19;;;;;;;15.63;3.30;;;;;;;10.52;100.00;100646.25;5080667;27;20117;-75
2023/12/26 04:39:45;;;;;;;11.57;2.78;;;;;;;10.33;100.00;100642.13;5076318;27;20862;-75
2023/12/26 04:42:11;;;;;;;10.48;3.20;;;;;;;10.37;100.00;100642.78;5108502;27;20035;-75
2023/12/26 04:44:36;;;;;;;8.98;2.80;;;;;;;10.29;100.00;100645.06;5093625;27;20078;-74
2023/12/26 04:47:02;;;;;;;11.45;2.55;;;;;;;10.32;100.00;100650.22;5091162;28;20047;-74
2023/12/26 04:49:30;;;;;;;11.05;2.30;;;;;;;10.20;100.00;100641.19;5082127;27;20171;-74
2023/12/26 04:51:56;;;;;;;13.23;2.38;;;;;;;10.16;100.00;100663.66;5102843;27;20660;-74
2023/12/26 04:54:22;;;;;;;11.02;1.77;;;;;;;10.10;100.00;100667.56;5095099;27;20082;-74
2023/12/26 04:56:48;;;;;;;9.65;2.42;;;;;;;10.03;100.00;100660.06;5081997;27;20043;-74
2023/12/26 04:59:14;;;;;;;6.28;2.38;;;;;;;9.99;100.00;100667.41;5083672;27;20862;-75
2023/12/26 05:01:42;;;;;;;15.70;2.05;;;;;;;9.85;100.00;100678.09;5073942;28;20932;-75
2023/12/26 05:04:10;;;;;;;8.18;1.98;;;;;;;9.89;100.00;100697.38;5094260;27;20032;-75
2023/12/26 05:06:37;;;;;;;10.93;1.80;;;;;;;9.82;100.00;100697.75;5076490;27;20043;-75
2023/12/26 05:09:03;;;;;;;14.23;2.47;;;;;;;9.78;100.00;100695.38;5079028;28;20036;-74
2023/12/26 05:11:29;;;;;;;7.35;1.90;;;;;;;9.68;100.00;100684.44;5093185;27;20548;-75
2023/12/26 05:13:54;;;;;;;13.23;1.90;;;;;;;9.70;100.00;100692.34;5095290;27;20947;-75
2023/12/26 05:16:21;;;;;;;8.27;2.20;;;;;;;9.70;100.00;100703.84;5090537;28;20040;-74
2023/12/26 05:18:47;;;;;;;11.88;2.05;;;;;;;9.59;100.00;100714.31;5071563;28;20136;-74
2023/12/26 05:21:17;;;;;;;14.90;2.40;;;;;;;9.60;100.00;100711.56;5084620;27;20043;-74
2023/12/26 05:23:43;;;;;;;6.57;2.30;;;;;;;9.52;100.00;100716.47;5057277;27;20038;-75
2023/12/26 05:26:09;;;;;;;12.90;2.63;;;;;;;9.52;100.00;100718.28;5088728;27;20042;-74
2023/12/26 05:28:37;;;;;;;12.43;2.63;;;;;;;9.49;100.00;100734.47;5087254;27;20046;-74
2023/12/26 05:31:03;;;;;;;13.63;2.63;;;;;;;9.48;100.00;100738.91;5077938;28;20040;-74
2023/12/26 05:33:29;;;;;;;8.05;2.42;;;;;;;9.52;100.00;100729.78;5107093;27;20023;-75
2023/12/26 05:35:55;;;;;;;13.05;3.00;;;;;;;9.52;100.00;100737.78;5104213;27;20075;-74
2023/12/26 05:38:22;;;;;;;6.53;2.42;;;;;;;9.48;100.00;100730.91;5087928;27;20042;-74
2023/12/26 05:40:47;;;;;;;8.48;2.40;;;;;;;9.49;100.00;100730.00;5100777;27;20067;-74
2023/12/26 05:43:13;;;;;;;22.50;2.80;;;;;;;9.42;100.00;100736.63;5080451;27;20031;-75
2023/12/26 05:45:39;;;;;;;10.07;2.20;;;;;;;9.40;100.00;100735.88;5083195;27;20103;-75
2023/12/26 05:48:07;;;;;;;14.38;2.78;;;;;;;9.42;100.00;100749.94;5081284;28;20032;-74
2023/12/26 05:50:33;;;;;;;11.70;2.88;;;;;;;9.41;100.00;100750.03;5079237;27;20111;-75
2023/12/26 05:52:59;;;;;;;12.95;2.63;;;;;;;9.32;100.00;100754.94;5093459;27;20036;-74
2023/12/26 05:55:24;;;;;;;8.75;2.40;;;;;;;9.34;100.00;100765.50;5079124;27;20044;-75
2023/12/26 05:57:50;;;;;;;10.13;2.47;;;;;;;9.28;100.00;100766.72;5073497;28;20033;-75
2023/12/26 06:00:17;;;;;;;17.65;3.85;;;;;;;9.26;100.00;100773.94;5083889;27;20043;-74
2023/12/26 06:02:43;;;;;;;7.90;2.00;;;;;;;9.23;100.00;100775.91;5087493;27;20032;-75
2023/12/26 06:05:09;;;;;;;7.82;2.55;;;;;;;9.18;100.00;100778.84;5075328;28;20032;-74
2023/12/26 06:07:35;;;;;;;10.30;2.10;;;;;;;9.17;100.00;100773.63;5096334;27;20109;-75
2023/12/26 06:10:01;;;;;;;13.10;2.33;;;;;;;9.13;100.00;100780.06;5079975;27;20065;-74
2023/12/26 06:12:28;;;;;;;10.75;2.38;;;;;;;9.11;100.00;100782.81;5099136;27;20047;-75
2023/12/26 06:14:54;;;;;;;11.27;2.05;;;;;;;9.07;100.00;100790.13;5084001;27;20103;-75
2023/12/26 06:17:21;;;;;;;15.75;2.95;;;;;;;9.03;100.00;100788.56;5087569;28;20501;-74
2023/12/26 06:19:48;;;;;;;20.30;3.17;;;;;;;8.99;100.00;100799.50;5096227;28;20035;-74
2023/12/26 06:22:13;;;;;;;19.75;3.22;;;;;;;9.01;100.00;100802.91;5112326;27;20032;-76
2023/12/26 06:24:39;;;;;;;17.70;2.17;;;;;;;8.88;100.00;100816.03;5089091;28;20066;-75
2023/12/26 06:27:05;;;;;;;22.85;3.45;;;;;;;8.93;100.00;100821.09;5083893;27;20032;-75
2023/12/26 06:29:31;;;;;;;15.55;2.90;;;;;;;8.89;100.00;100839.06;5111629;27;20031;-76
2023/12/26 06:31:57;;;;;;;17.38;2.92;;;;;;;8.88;100.00;100850.59;5097737;27;20753;-75
2023/12/26 06:34:23;;;;;;;10.25;2.28;;;;;;;8.92;100.00;100841.53;5087966;28;20037;-75
2023/12/26 06:36:49;;;;;;;9.25;2.83;;;;;;;8.90;100.00;100862.03;5107258;27;20047;-74
2023/12/26 06:39:15;;;;;;;9.70;2.13;;;;;;;8.88;100.00;100857.72;5083601;28;20064;-75
2023/12/26 06:41:42;;;;;;;14.38;2.70;;;;;;;8.80;100.00;100864.34;5085358;28;20033;-74
2023/12/26 06:44:07;;;;;;;14.57;2.28;;;;;;;8.80;100.00;100879.44;5081273;28;20029;-75
2023/12/26 06:46:38;;;;;;;16.77;2.55;;;;;;;8.75;100.00;100882.38;5109973;27;20032;-74
2023/12/26 06:49:04;;;;;;;10.77;2.80;;;;;;;8.73;100.00;100888.69;5108887;27;20038;-75
2023/12/26 06:51:30;;;;;;;17.08;3.05;;;;;;;8.75;100.00;100885.03;5089576;28;20043;-75
2023/12/26 06:53:55;;;;;;;9.60;2.28;;;;;;;8.66;100.00;100888.19;5118299;27;20063;-75
2023/12/26 06:56:21;;;;;;;14.10;2.83;;;;;;;8.64;100.00;100897.19;5077266;28;20032;-74
2023/12/26 06:58:47;;;;;;;12.15;3.42;;;;;;;8.62;100.00;100902.56;5115551;27;20031;-74
2023/12/26 07:01:13;;;;;;;17.67;3.13;;;;;;;8.61;100.00;100895.53;5107365;27;20047;-74
2023/12/26 07:03:39;;;;;;;20.83;3.25;;;;;;;8.65;100.00;100898.91;5088801;28;20132;-75
2023/12/26 07:06:05;;;;;;;16.48;3.17;;;;;;;8.54;100.00;100895.03;5104178;27;20042;-73
2023/12/26 07:08:30;;;;;;;17.02;3.05;;;;;;;8.59;100.00;100896.59;5108527;27;20100;-74
2023/12/26 07:10:56;;;;;;;21.45;2.83;;;;;;;8.53;100.00;100903.06;5100256;27;20031;-75
2023/12/26 07:13:22;;;;;;;17.35;3.97;;;;;;;8.50;100.00;100911.22;5104208;27;20595;-75
2023/12/26 07:15:47;;;;;;;9.00;2.10;;;;;;;8.58;100.00;100909.00;5100975;27;20119;-74
2023/12/26 07:18:13;;;;;;;20.83;2.80;;;;;;;8.59;100.00;100912.53;5102924;27;20776;-75
2023/12/26 07:20:38;;;;;;;13.70;2.70;;;;;;;8.53;100.00;100914.59;5098798;27;20040;-75
2023/12/26 07:23:04;;;;;;;14.88;2.22;;;;;;;8.53;100.00;100922.56;5099978;27;20085;-75
2023/12/26 07:25:31;;;;;;;13.40;2.63;;;;;;;8.50;100.00;100917.38;5095875;27;20754;-74
2023/12/26 07:27:56;;;;;;;18.50;3.33;;;;;;;8.50;100.00;100924.50;5097153;27;20126;-74
2023/12/26 07:30:23;;;;;;;16.13;2.80;;;;;;;8.39;100.00;100927.75;5097769;27;20389;-74
2023/12/26 07:32:48;;;;;;;11.13;2.33;;;;;;;8.39;100.00;100927.75;5096795;27;20036;-75
2023/12/26 07:35:14;;;;;;;15.45;2.38;;;;;;;8.35;100.00;100936.78;5093256;27;20398;-75
2023/12/26 07:37:39;;;;;;;12.60;2.38;;;;;;;8.38;100.00;100941.09;5099574;27;20663;-75
2023/12/26 07:40:05;;;;;;;18.00;2.67;;;;;;;8.37;100.00;100942.88;5086645;27;20160;-73
2023/12/26 07:42:31;;;;;;;14.73;2.83;;;;;;;8.27;100.00;100942.47;5055436;27;20517;-75
2023/12/26 07:44:57;;;;;;;16.60;2.38;;;;;;;8.29;100.00;100945.06;5096305;27;20036;-74
2023/12/26 07:47:22;;;;;;;14.73;2.75;;;;;;;8.31;100.00;100948.50;5091792;27;20426;-75
2023/12/26 07:49:48;;;;;;;20.35;3.47;;;;;;;8.30;100.00;100957.41;5078134;28;20119;-76
2023/12/26 07:52:14;;;;;;;14.00;2.65;;;;;;;8.26;100.00;100958.50;5093990;27;20045;-76
2023/12/26 07:54:39;;;;;;;12.18;2.92;;;;;;;8.33;100.00;100965.19;5091341;27;20032;-76
2023/12/26 07:57:05;;;;;;;18.92;3.47;;;;;;;8.26;100.00;100964.66;5094562;27;20078;-75
2023/12/26 07:59:31;;;;;;;14.13;2.97;;;;;;;8.21;100.00;100969.38;5057564;27;21073;-75
2023/12/26 08:01:57;;;;;;;10.20;3.40;;;;;;;8.26;100.00;100988.59;5095401;27;20032;-75
2023/12/26 08:04:22;;;;;;;11.60;2.75;;;;;;;8.34;100.00;100977.56;5094356;27;20033;-75
2023/12/26 08:06:48;;;;;;;19.48;2.85;;;;;;;8.33;100.00;100997.09;5090957;27;20043;-75
2023/12/26 08:09:13;;;;;;;16.98;3.10;;;;;;;8.35;100.00;100981.09;5082371;27;20036;-75
2023/12/26 08:11:39;;;;;;;16.98;2.90;;;;;;;8.35;100.00;100987.25;5087793;28;20036;-75
2023/12/26 08:14:05;;;;;;;13.07;2.28;;;;;;;8.38;100.00;100992.41;5097456;27;20024;-76
2023/12/26 08:16:30;;;;;;;16.52;3.22;;;;;;;8.35;100.00;100981.09;5092268;27;20063;-75
2023/12/26 08:18:57;;;;;;;12.57;2.53;;;;;;;8.40;100.00;100987.06;5093883;27;20029;-75
2023/12/26 08:21:23;;;;;;;21.88;3.22;;;;;;;8.46;100.00;100990.25;5095958;27;20032;-76
2023/12/26 08:23:48;;;;;;;15.38;3.45;;;;;;;8.59;100.00;100987.81;5082752;27;20097;-75
2023/12/26 08:26:14;;;;;;;22.48;3.05;;;;;;;8.59;100.00;100993.13;5090068;28;20115;-75
2023/12/26 08:28:41;;;;;;;11.32;3.03;;;;;;;8.64;100.00;100991.09;5093900;27;20032;-75
2023/12/26 08:31:07;;;;;;;16.45;2.50;;;;;;;8.64;100.00;100991.09;5076244;28;20050;-75
2023/12/26 08:33:35;;;;;;;12.77;2.58;;;;;;;8.71;100.00;100996.94;5109861;27;20815;-74
2023/12/26 08:36:01;;;;;;;21.38;2.97;;;;;;;8.72;100.00;101010.13;5097093;27;20142;-76
2023/12/26 08:38:28;;;;;;;9.48;2.67;;;;;;;8.64;100.00;101019.47;5091186;28;20140;-75
2023/12/26 08:40:54;;;;;;;9.13;2.60;;;;;;;8.65;100.00;101019.38;5072296;28;20040;-74
2023/12/26 08:43:19;;;;;;;14.43;3.22;;;;;;;8.65;100.00;101019.38;5090896;28;20039;-75
2023/12/26 08:45:45;;;;;;;16.95;2.53;;;;;;;8.72;100.00;101022.56;5095358;27;20166;-75
2023/12/26 08:48:11;;;;;;;11.27;3.03;;;;;;;8.69;100.00;101041.34;5061277;27;20040;-76
2023/12/26 08:50:37;;;;;;;16.10;2.75;;;;;;;8.70;100.00;101048.38;5098258;27;20044;-74
2023/12/26 08:53:02;;;;;;;16.38;3.00;;;;;;;8.63;100.00;101039.84;5091275;27;20170;-74
2023/12/26 08:55:28;;;;;;;14.27;2.60;;;;;;;8.63;100.00;101058.44;5090946;27;20041;-76
2023/12/26 08:57:54;;;;;;;15.80;3.00;;;;;;;8.61;100.00;101065.66;5091105;28;20586;-75
2023/12/26 09:00:19;;;;;;;13.00;3.03;;;;;;;8.56;100.00;101065.91;5104970;27;20031;-76
2023/12/26 09:02:45;;;;;;;19.65;3.20;;;;;;;8.56;100.00;101065.03;5097463;27;20035;-75
2023/12/26 09:05:11;;;;;;;11.48;2.40;;;;;;;8.62;100.00;101071.84;5094628;27;20047;-75
2023/12/26 09:07:37;;;;;;;29.77;3.45;;;;;;;8.53;100.00;101083.78;5095138;27;20023;-75
2023/12/26 09:10:06;;;;;;;10.90;2.85;;;;;;;8.57;100.00;101088.00;5102553;27;20044;-75
2023/12/26 09:12:32;;;;;;;19.58;3.35;;;;;;;8.54;100.00;101083.72;5090452;28;20040;-74
2023/12/26 09:14:58;;;;;;;22.58;3.60;;;;;;;8.61;100.00;101096.69;5095993;27;20040;-74
2023/12/26 09:17:23;;;;;;;15.15;3.40;;;;;;;8.54;100.00;101105.00;5076583;27;20124;-75
2023/12/26 09:19:49;;;;;;;21.73;4.15;;;;;;;8.60;100.00;101110.94;5092736;27;20036;-74
2023/12/26 09:22:15;;;;;;;23.98;3.35;;;;;;;8.56;100.00;101127.03;5097659;27;20036;-73
2023/12/26 09:24:43;;;;;;;14.32;2.72;;;;;;;8.53;100.00;101121.00;5093951;27;20040;-74
2023/12/26 09:27:09;;;;;;;22.52;3.65;;;;;;;8.54;100.00;101133.38;5069100;28;20028;-74
2023/12/26 09:29:35;;;;;;;9.23;2.85;;;;;;;8.47;100.00;101138.13;5090518;28;20524;-73
2023/12/26 09:32:01;;;;;;;17.20;2.95;;;;;;;8.48;100.00;101154.91;5091546;27;20125;-73
2023/12/26 09:34:27;;;;;;;13.57;2.65;;;;;;;8.50;100.00;101153.06;5095078;27;20573;-74
2023/12/26 09:36:53;;;;;;;23.58;3.17;;;;;;;8.51;100.00;101166.25;5099314;27;20046;-73
2023/12/26 09:39:18;;;;;;;24.50;3.75;;;;;;;8.52;100.00;101164.47;5092505;27;20147;-74
2023/12/26 09:41:53;;;;;;;14.82;3.38;;;;;;;8.54;100.00;101166.13;5089880;28;20517;-74
2023/12/26 09:44:20;;;;;;;16.08;3.55;;;;;;;8.60;100.00;101164.97;5090013;27;20093;-76
2023/12/26 09:46:46;;;;;;;20.90;3.67;;;;;;;8.60;100.00;101167.63;5095091;27;20066;-76
2023/12/26 09:49:11;;;;;;;23.50;3.15;;;;;;;8.70;100.00;101168.88;5103608;27;20047;-76
2023/12/26 09:51:45;;;;;;;14.35;3.10;;;;;;;8.76;100.00;101170.34;5094158;27;21006;-75
2023/12/26 09:54:12;;;;;;;9.75;2.72;;;;;;;8.79;100.00;101184.38;5090502;27;20028;-76
2023/12/26 09:56:42;;;;;;;20.23;3.78;;;;;;;8.77;100.00;101185.38;5095105;27;20043;-75
2023/12/26 09:59:09;;;;;;;19.02;3.22;;;;;;;8.85;100.00;101192.97;5095284;27;20032;-75
2023/12/26 10:01:35;;;;;;;19.35;3.40;;;;;;;8.94;100.00;101206.66;5096969;27;20031;-76
2023/12/26 10:04:03;;;;;;;18.52;3.47;;;;;;;8.87;100.00;101204.38;5072425;28;20568;-77
2023/12/26 10:06:29;;;;;;;15.65;3.00;;;;;;;8.97;100.00;101221.59;5089128;28;20124;-76
2023/12/26 10:08:55;;;;;;;17.33;2.75;;;;;;;9.05;100.00;101219.41;5099263;27;20042;-76
2023/12/26 10:11:21;;;;;;;16.13;3.28;;;;;;;9.10;100.00;101221.84;5089346;27;20082;-75
2023/12/26 10:13:53;;;;;;;13.10;3.15;;;;;;;9.08;100.00;101228.06;5071841;27;20058;-76
2023/12/26 10:16:22;;;;;;;17.77;2.97;;;;;;;9.08;100.00;101211.25;5089614;27;20105;-75
2023/12/26 10:18:47;;;;;;;17.67;3.30;;;;;;;9.17;100.00;101217.91;5095155;27;20082;-74
2023/12/26 10:21:13;;;;;;;13.73;3.53;;;;;;;9.13;100.00;101216.34;5093580;27;20039;-76
2023/12/26 10:23:39;;;;;;;21.23;3.70;;;;;;;9.21;100.00;101223.00;5095414;27;20047;-74
2023/12/26 10:26:05;;;;;;;17.95;2.92;;;;;;;9.20;100.00;101228.41;5094499;27;20795;-76
2023/12/26 10:28:44;;;;;;;24.42;3.60;;;;;;;9.25;100.00;101231.69;5095505;27;20078;-75
2023/12/26 10:31:14;;;;;;;18.30;3.25;;;;;;;9.33;100.00;101235.66;5089613;27;20055;-75
2023/12/26 10:33:41;;;;;;;15.48;3.15;;;;;;;9.24;100.00;101235.31;5096346;27;20028;-76
2023/12/26 10:36:08;;;;;;;17.58;2.90;;;;;;;9.31;100.00;101242.03;5074859;28;20397;-75
2023/12/26 10:38:34;;;;;;;22.02;3.90;;;;;;;9.31;100.00;101247.34;5070216;28;20111;-76
2023/12/26 10:41:04;;;;;;;19.77;4.43;;;;;;;9.23;100.00;101253.03;5066245;28;20036;-75
2023/12/26 10:43:31;;;;;;;21.95;4.13;;;;;;;9.32;100.00;101255.25;5074439;28;20120;-75
2023/12/26 10:45:59;;;;;;;18.08;3.20;;;;;;;9.39;100.00;101258.47;5053061;28;20063;-75
2023/12/26 10:48:32;;;;;;;24.63;3.88;;;;;;;9.37;100.00;101255.00;5078522;27;20377;-75
2023/12/26 10:50:59;;;;;;;16.00;2.80;;;;;;;9.38;100.00;101250.53;5074564;28;20498;-75
2023/12/26 10:54:03;;;;;;;15.85;3.03;;;;;;;9.41;100.00;101253.91;5070977;28;20036;-75
2023/12/26 10:56:31;;;;;;;20.02;4.53;;;;;;;9.41;100.00;101266.34;5048475;28;20052;-76
2023/12/26 10:58:58;;;;;;;16.17;3.72;;;;;;;9.51;100.00;101260.47;5068803;28;20701;-76
2023/12/26 13:51:43;;;;;;;12.57;3.08;;;;;;;10.05;100.00;101452.13;5083690;27;20055;-73
2023/12/26 13:54:11;;;;;;;18.13;3.40;;;;;;;9.82;100.00;101455.94;5090210;27;21534;-75
2023/12/26 13:56:36;;;;;;;14.75;2.55;;;;;;;9.92;100.00;101459.88;5086095;27;20051;-74
2023/12/26 13:59:02;;;;;;;12.13;2.58;;;;;;;9.79;100.00;101461.44;5083729;27;20601;-74
2023/12/26 14:01:28;;;;;;;12.57;2.75;;;;;;;10.00;100.00;101475.50;5087281;27;20046;-75
2023/12/26 14:03:55;;;;;;;11.70;2.72;;;;;;;9.92;100.00;101467.00;5083200;27;20051;-75